Rachel — D5CG4 — position and weather

sailwx.info

Track history (hours):
 
Tides and Currents Weather Stations Pressure Air Temp Water Temp Dewpoint Dewpoint Depression Visibility Wind Speed Wind Dir Waves Ship Positions

Rachel

Last reported at 2014-Aug-30 15:32 UTC. Time now 2014-Sep-01 18:47 UTC.
Position N 01°15' E 104°02'.

Length 189 m; draft 6.4 m.

Type: Cargo ship. MMSI: 636015692.

Date/timePositionNaut miles runAvg speedWind from/ knotsBaromVisibWave heightAir tempDewpointWater temp
2014-Aug-30 15:32N 01°15' E 104°02'1211.9
2014-Aug-30 14:31N 01°10' E 103°50'9 3.0
2014-Aug-30 11:32N 01°12' E 103°41'0 0.1
2014-Aug-30 07:28N 01°12' E 103°42'2 0.3
2014-Aug-30 00:32N 01°14' E 103°42'  
2014-Aug-26 00:33N 01°15' E 103°42'8 1.4
2014-Aug-25 18:33N 01°11' E 103°50'5 4.9
2014-Aug-25 17:33N 01°13' E 103°54'5 4.8
2014-Aug-25 16:33N 01°15' E 103°58'5 5.1
2014-Aug-25 15:32N 01°16' E 104°03'  
Track history (hours):
 
Tides and Currents Weather Stations Pressure Air Temp Water Temp Dewpoint Dewpoint Depression Visibility Wind Speed Wind Dir Waves Ship Positions

Rachel

Last reported at 2014-Aug-30 15:32 UTC. Time now 2014-Sep-01 18:47 UTC.
Position N 01°15' E 104°02'.

Length 189 m; draft 6.4 m.

Type: Cargo ship. MMSI: 636015692.

Date/timePositionNaut miles runAvg speedWind from/ knotsBaromVisibWave heightAir tempDewpointWater temp
2014-Aug-30 15:32N 01°15' E 104°02'1211.9
2014-Aug-30 14:31N 01°10' E 103°50'9 3.0
2014-Aug-30 11:32N 01°12' E 103°41'0 0.1
2014-Aug-30 07:28N 01°12' E 103°42'2 0.3
2014-Aug-30 00:32N 01°14' E 103°42'  
2014-Aug-26 00:33N 01°15' E 103°42'8 1.4
2014-Aug-25 18:33N 01°11' E 103°50'5 4.9
2014-Aug-25 17:33N 01°13' E 103°54'5 4.8
2014-Aug-25 16:33N 01°15' E 103°58'5 5.1
2014-Aug-25 15:32N 01°16' E 104°03'  

Dump ship's entire track history